CCGS Sir Wilfrid Laurier — CGJK — position and weather

sailwx.info

Track history (hours):
 
Tides and Currents Weather Stations Pressure Air Temp Water Temp Dewpoint Dewpoint Depression Visibility Wind Speed Wind Dir Waves Ship Positions

Oceanographic research ship CCGS Sir Wilfrid Laurier (Canada)

Detailed information on ship capabilities available from ARCUS's ALIAS (Arctic Logistics Information and Support) project.

Last reported at 2014-Nov-01 05:32 UTC. Time now 2014-Nov-01 06:21 UTC.
Position N 49°11' W 122°55'.

Length 83 m; beam 16.2 m; draft 6 m.

Type: SAR. MMSI: 316052000.

Date/timePositionNaut miles runAvg speedWind from/ knotsBaromVisibWave heightAir tempDewpointWater temp
2014-Nov-01 05:32N 49°11' W 122°55'0 0.0
2014-Nov-01 04:32N 49°11' W 122°55'0 0.0
2014-Nov-01 03:32N 49°11' W 122°55'0 0.0
2014-Nov-01 02:32N 49°11' W 122°55'0 0.0
2014-Nov-01 01:32N 49°11' W 122°55'0 0.0
2014-Nov-01 00:32N 49°11' W 122°55'0 0.0
2014-Oct-31 23:26N 49°11' W 122°55'0 0.0
2014-Oct-31 22:32N 49°11' W 122°55'0 0.0
2014-Oct-31 21:32N 49°11' W 122°55'0 0.0
2014-Oct-31 20:32N 49°11' W 122°55'0 0.0
2014-Oct-31 19:32N 49°11' W 122°55'0 0.0
2014-Oct-31 18:32N 49°11' W 122°55'0 0.0
2014-Oct-31 17:20N 49°11' W 122°55'0 0.0
2014-Oct-31 16:32N 49°11' W 122°55'0 0.0
2014-Oct-31 15:26N 49°11' W 122°55'0 0.0
2014-Oct-31 14:32N 49°11' W 122°55'0 0.0
2014-Oct-31 13:26N 49°11' W 122°55'0 0.0
2014-Oct-31 12:32N 49°11' W 122°55'0 0.0
2014-Oct-31 11:32N 49°11' W 122°55'0 0.0
2014-Oct-31 10:32N 49°11' W 122°55'0 0.0
2014-Oct-31 09:32N 49°11' W 122°55'0 0.0
2014-Oct-31 08:32N 49°11' W 122°55'0 0.0
2014-Oct-31 07:32N 49°11' W 122°55'0 0.0
2014-Oct-31 06:32N 49°11' W 122°55'0 0.0
2014-Oct-31 05:26N 49°11' W 122°55'0 0.0
2014-Oct-31 04:32N 49°11' W 122°55'0 0.0
2014-Oct-31 03:32N 49°11' W 122°55'0 0.0
2014-Oct-31 02:32N 49°11' W 122°55'0 0.0
2014-Oct-31 01:32N 49°11' W 122°55'0 0.0
2014-Oct-31 00:32N 49°11' W 122°55'0 0.0
2014-Oct-30 23:32N 49°11' W 122°55'0 0.0
2014-Oct-30 22:32N 49°11' W 122°55'0 0.0
2014-Oct-30 21:32N 49°11' W 122°55'0 0.0
2014-Oct-30 20:29N 49°11' W 122°55'0 0.0
2014-Oct-30 19:32N 49°11' W 122°55'0 0.0
2014-Oct-30 18:32N 49°11' W 122°55'0 0.0
2014-Oct-30 17:26N 49°11' W 122°55'0 0.1
2014-Oct-30 16:33N 49°11' W 122°55'1 0.6
2014-Oct-30 15:34N 49°11' W 122°55'8 7.8
2014-Oct-30 14:33N 49°07' W 123°05'8 8.3
2014-Oct-30 13:34N 49°06' W 123°18'4 3.9
2014-Oct-30 12:33N 49°02' W 123°17'7 6.6
2014-Oct-30 11:34N 48°58' W 123°10'6 6.4
2014-Oct-30 10:34N 48°54' W 123°02'5 4.5
2014-Oct-30 09:33N 48°52' W 122°56'1 1.0
2014-Oct-30 08:33N 48°53' W 122°55'0 0.4
2014-Oct-30 07:33N 48°53' W 122°55'1 0.6
2014-Oct-30 06:34N 48°53' W 122°54'1 1.1
2014-Oct-30 05:33N 48°52' W 122°56'7 7.2
2014-Oct-30 04:33N 48°46' W 123°02'1010.3
2014-Oct-30 03:33N 48°41' W 123°15'1111.0
2014-Oct-30 02:34N 48°30' W 123°11'10 9.5
2014-Oct-30 01:34N 48°22' W 123°19'4 2.1
2014-Oct-29 23:31N 48°25' W 123°23'0 0.0
2014-Oct-29 22:31N 48°25' W 123°23'0 0.0
2014-Oct-29 21:31N 48°25' W 123°23'0 0.0
2014-Oct-29 20:31N 48°25' W 123°23'0 0.0
2014-Oct-29 19:31N 48°25' W 123°23'0 0.0
2014-Oct-29 18:31N 48°25' W 123°23'0 0.0
2014-Oct-29 17:31N 48°25' W 123°23'0 0.0
2014-Oct-29 16:25N 48°25' W 123°23'0 0.0
2014-Oct-29 15:25N 48°25' W 123°23'0 0.0
2014-Oct-29 14:31N 48°25' W 123°23'0 0.0
2014-Oct-29 13:31N 48°25' W 123°23'0 0.0
2014-Oct-29 12:31N 48°25' W 123°23'0 0.0
2014-Oct-29 11:31N 48°25' W 123°23'0 0.0
2014-Oct-29 10:31N 48°25' W 123°23'0 0.0
2014-Oct-29 09:31N 48°25' W 123°23'0 0.0
2014-Oct-29 08:31N 48°25' W 123°23'0 0.0
2014-Oct-29 07:31N 48°25' W 123°23'0 0.0
2014-Oct-29 06:25N 48°25' W 123°23'0 0.0
2014-Oct-29 05:31N 48°25' W 123°23'0 0.0
2014-Oct-29 04:31N 48°25' W 123°23'0 0.0
2014-Oct-29 03:31N 48°25' W 123°23'0 0.0
2014-Oct-29 02:25N 48°25' W 123°23'0 0.0
2014-Oct-29 01:31N 48°25' W 123°23'0 0.0
2014-Oct-28 23:31N 48°25' W 123°23'0 0.0
2014-Oct-28 22:19N 48°25' W 123°23'0 0.0
2014-Oct-28 21:31N 48°25' W 123°23'0 0.0
2014-Oct-28 20:31N 48°25' W 123°23'0 0.0
2014-Oct-28 19:13N 48°25' W 123°23'0 0.0
2014-Oct-28 18:19N 48°25' W 123°23'0 0.0
2014-Oct-28 17:25N 48°25' W 123°23'0 0.0
2014-Oct-28 16:31N 48°25' W 123°23'0 0.0
2014-Oct-28 15:31N 48°25' W 123°23'0 0.0
2014-Oct-28 14:31N 48°25' W 123°23'0 0.0
2014-Oct-28 13:25N 48°25' W 123°23'0 0.0
2014-Oct-28 12:31N 48°25' W 123°23'0 0.0
2014-Oct-28 11:31N 48°25' W 123°23'0 0.0
2014-Oct-28 10:25N 48°25' W 123°23'0 0.0
2014-Oct-28 09:28N 48°25' W 123°23'0 0.0
2014-Oct-28 08:28N 48°25' W 123°23'0 0.0
2014-Oct-28 07:22N 48°25' W 123°23'0 0.0
2014-Oct-28 06:22N 48°25' W 123°23'0 0.0
2014-Oct-28 05:31N 48°25' W 123°23'0 0.0
2014-Oct-28 04:31N 48°25' W 123°23'0 0.0
2014-Oct-28 03:31N 48°25' W 123°23'0 0.0
2014-Oct-28 02:31N 48°25' W 123°23'0 0.0
2014-Oct-28 01:31N 48°25' W 123°23'0 0.0
2014-Oct-28 00:31N 48°25' W 123°23'0 0.0
2014-Oct-27 23:31N 48°25' W 123°23'0 0.0
2014-Oct-27 22:31N 48°25' W 123°23'0 0.0
2014-Oct-27 21:31N 48°25' W 123°23'0 0.0
2014-Oct-27 20:19N 48°25' W 123°23'0 0.0
2014-Oct-27 19:31N 48°25' W 123°23'0 0.0
2014-Oct-27 18:31N 48°25' W 123°23'0 0.0
2014-Oct-27 17:28N 48°25' W 123°23'0 0.0
2014-Oct-27 16:31N 48°25' W 123°23'0 0.0
2014-Oct-27 15:25N 48°25' W 123°23'0 0.0
2014-Oct-27 14:25N 48°25' W 123°23'0 0.0
2014-Oct-27 13:31N 48°25' W 123°23'0 0.0
2014-Oct-27 12:31N 48°25' W 123°23'0 0.0
2014-Oct-27 11:31N 48°25' W 123°23'0 0.0
2014-Oct-27 10:31N 48°25' W 123°23'0 0.0
2014-Oct-27 09:31N 48°25' W 123°23'0 0.0
2014-Oct-27 08:31N 48°25' W 123°23'0 0.0
2014-Oct-27 07:13N 48°25' W 123°23'0 0.0
2014-Oct-27 06:31N 48°25' W 123°23'0 0.0
2014-Oct-27 05:31N 48°25' W 123°23'0 0.0
2014-Oct-27 04:25N 48°25' W 123°23'0 0.0
2014-Oct-27 02:31N 48°25' W 123°23'0 0.0
2014-Oct-27 01:25N 48°25' W 123°23'0 0.0
2014-Oct-27 00:31N 48°25' W 123°23'0 0.0
2014-Oct-26 23:25N 48°25' W 123°23'0 0.0
2014-Oct-26 22:31N 48°25' W 123°23'0 0.0
2014-Oct-26 21:25N 48°25' W 123°23'0 0.0
2014-Oct-26 20:31N 48°25' W 123°23'0 0.0
2014-Oct-26 19:31N 48°25' W 123°23'0 0.0
2014-Oct-26 18:07N 48°25' W 123°23'0 0.0
2014-Oct-26 17:31N 48°25' W 123°23'0 0.0
2014-Oct-26 16:31N 48°25' W 123°23'0 0.0
2014-Oct-26 15:19N 48°25' W 123°23'0 0.0
2014-Oct-26 14:31N 48°25' W 123°23'0 0.0
2014-Oct-26 13:31N 48°25' W 123°23'0 0.0
2014-Oct-26 12:25N 48°25' W 123°23'0 0.0
2014-Oct-26 11:25N 48°25' W 123°23'0 0.0
2014-Oct-26 10:31N 48°25' W 123°23'0 0.0
2014-Oct-26 09:25N 48°25' W 123°23'0 0.0
2014-Oct-26 08:19N 48°25' W 123°23'0 0.0
2014-Oct-26 07:31N 48°25' W 123°23'0 0.0
2014-Oct-26 06:31N 48°25' W 123°23'0 0.0
2014-Oct-26 05:31N 48°25' W 123°23'0 0.0
2014-Oct-26 04:25N 48°25' W 123°23'0 0.0
2014-Oct-26 03:31N 48°25' W 123°23'0 0.0
2014-Oct-26 02:31N 48°25' W 123°23'0 0.0
2014-Oct-26 01:31N 48°25' W 123°23'0 0.0
2014-Oct-26 00:31N 48°25' W 123°23'0 0.0
2014-Oct-25 23:31N 48°25' W 123°23'0 0.0
2014-Oct-25 22:31N 48°25' W 123°23'0 0.0
2014-Oct-25 20:19N 48°25' W 123°23'0 0.0
2014-Oct-25 19:07N 48°25' W 123°23'0 0.0
2014-Oct-25 15:25N 48°25' W 123°23'0 0.0
2014-Oct-25 14:25N 48°25' W 123°23'0 0.0
2014-Oct-25 13:31N 48°25' W 123°23'0 0.0
2014-Oct-25 12:31N 48°25' W 123°23'0 0.0
2014-Oct-25 11:31N 48°25' W 123°23'0 0.0
2014-Oct-25 10:31N 48°25' W 123°23'0 0.0
2014-Oct-25 09:31N 48°25' W 123°23'0 0.0
2014-Oct-25 08:25N 48°25' W 123°23'0 0.0
2014-Oct-25 07:31N 48°25' W 123°23'0 0.0
2014-Oct-25 06:31N 48°25' W 123°23'0 0.0
2014-Oct-25 05:31N 48°25' W 123°23'0 0.0
2014-Oct-25 04:31N 48°25' W 123°23'0 0.0
2014-Oct-25 03:31N 48°25' W 123°23'0 0.0
2014-Oct-25 02:31N 48°25' W 123°23'0 0.0
2014-Oct-25 01:31N 48°25' W 123°23'0 0.0
2014-Oct-25 00:31N 48°25' W 123°23'0 0.0
2014-Oct-24 23:31N 48°25' W 123°23'0 0.0
2014-Oct-24 22:31N 48°25' W 123°23'0 0.0
2014-Oct-24 21:25N 48°25' W 123°23'0 0.0
2014-Oct-24 20:31N 48°25' W 123°23'0 0.0
2014-Oct-24 19:31N 48°25' W 123°23'0 0.0
2014-Oct-24 18:13N 48°25' W 123°23'0 0.0
2014-Oct-24 17:25N 48°25' W 123°23'0 0.0
2014-Oct-24 16:31N 48°25' W 123°23'0 0.0
2014-Oct-24 15:31N 48°25' W 123°23'0 0.0
2014-Oct-24 14:31N 48°25' W 123°23'0 0.0
2014-Oct-24 13:31N 48°25' W 123°23'0 0.0
2014-Oct-24 12:31N 48°25' W 123°23'0 0.0
2014-Oct-24 11:31N 48°25' W 123°23'0 0.0
2014-Oct-24 10:25N 48°25' W 123°23'0 0.0
2014-Oct-24 09:19N 48°25' W 123°23'0 0.0
2014-Oct-24 08:19N 48°25' W 123°23'0 0.0
2014-Oct-24 07:31N 48°25' W 123°23'0 0.0
2014-Oct-24 06:31N 48°25' W 123°23'0 0.0
2014-Oct-24 05:25N 48°25' W 123°23'0 0.0
2014-Oct-24 04:31N 48°25' W 123°23'0 0.0
2014-Oct-24 02:31N 48°25' W 123°23'0 0.0
2014-Oct-24 01:31N 48°25' W 123°23'0 0.0
2014-Oct-24 00:31N 48°25' W 123°23'0 0.0
2014-Oct-23 23:31N 48°25' W 123°23'0 0.0
2014-Oct-23 22:13N 48°25' W 123°23'0 0.0
2014-Oct-23 21:31N 48°25' W 123°23'1 0.9
2014-Oct-23 20:33N 48°25' W 123°24'8 8.1
2014-Oct-23 19:33N 48°27' W 123°13'1211.9
2014-Oct-23 18:33N 48°38' W 123°21'6 6.2
2014-Oct-23 17:33N 48°40' W 123°30'2 2.0
2014-Oct-23 16:30N 48°39' W 123°27'0 0.0
2014-Oct-23 15:18N 48°39' W 123°27'0 0.0
2014-Oct-23 09:21N 48°39' W 123°27'0 0.0
2014-Oct-23 03:18N 48°39' W 123°27'0 0.0
2014-Oct-23 01:06N 48°39' W 123°27'0 0.0
2014-Oct-23 00:33N 48°39' W 123°27'0 0.0
2014-Oct-22 23:30N 48°39' W 123°27'0 0.0
2014-Oct-22 22:12N 48°39' W 123°27'0 0.0
2014-Oct-22 21:30N 48°39' W 123°27'0 0.0
2014-Oct-22 20:33N 48°39' W 123°27'0 0.0
2014-Oct-22 19:30N 48°39' W 123°27'0 0.0
2014-Oct-22 18:27N 48°39' W 123°27'0 0.0
2014-Oct-22 17:33N 48°39' W 123°27'0 0.0
2014-Oct-22 16:30N 48°39' W 123°27'0 0.0
2014-Oct-22 15:33N 48°39' W 123°27'2 1.8
2014-Oct-22 14:32N 48°40' W 123°30'9 9.3
2014-Oct-22 13:34N 48°44' W 123°18'1212.2
2014-Oct-22 12:33N 48°48' W 123°01'6 6.4
2014-Oct-22 11:33N 48°52' W 123°08'6 6.3
2014-Oct-22 10:33N 48°56' W 123°16'6 6.3
2014-Oct-22 09:33N 48°59' W 123°24'6 6.1
2014-Oct-22 08:33N 49°04' W 123°30'6 6.3
2014-Oct-22 07:33N 49°09' W 123°36'6 6.3
2014-Oct-22 06:32N 49°13' W 123°44'6 6.4
2014-Oct-22 05:33N 49°16' W 123°53'  
Track history (hours):
 
Tides and Currents Weather Stations Pressure Air Temp Water Temp Dewpoint Dewpoint Depression Visibility Wind Speed Wind Dir Waves Ship Positions

Oceanographic research ship CCGS Sir Wilfrid Laurier (Canada)

Detailed information on ship capabilities available from ARCUS's ALIAS (Arctic Logistics Information and Support) project.

Last reported at 2014-Nov-01 05:32 UTC. Time now 2014-Nov-01 06:21 UTC.
Position N 49°11' W 122°55'.

Length 83 m; beam 16.2 m; draft 6 m.

Type: SAR. MMSI: 316052000.

Date/timePositionNaut miles runAvg speedWind from/ knotsBaromVisibWave heightAir tempDewpointWater temp
2014-Nov-01 05:32N 49°11' W 122°55'0 0.0
2014-Nov-01 04:32N 49°11' W 122°55'0 0.0
2014-Nov-01 03:32N 49°11' W 122°55'0 0.0
2014-Nov-01 02:32N 49°11' W 122°55'0 0.0
2014-Nov-01 01:32N 49°11' W 122°55'0 0.0
2014-Nov-01 00:32N 49°11' W 122°55'0 0.0
2014-Oct-31 23:26N 49°11' W 122°55'0 0.0
2014-Oct-31 22:32N 49°11' W 122°55'0 0.0
2014-Oct-31 21:32N 49°11' W 122°55'0 0.0
2014-Oct-31 20:32N 49°11' W 122°55'0 0.0
2014-Oct-31 19:32N 49°11' W 122°55'0 0.0
2014-Oct-31 18:32N 49°11' W 122°55'0 0.0
2014-Oct-31 17:20N 49°11' W 122°55'0 0.0
2014-Oct-31 16:32N 49°11' W 122°55'0 0.0
2014-Oct-31 15:26N 49°11' W 122°55'0 0.0
2014-Oct-31 14:32N 49°11' W 122°55'0 0.0
2014-Oct-31 13:26N 49°11' W 122°55'0 0.0
2014-Oct-31 12:32N 49°11' W 122°55'0 0.0
2014-Oct-31 11:32N 49°11' W 122°55'0 0.0
2014-Oct-31 10:32N 49°11' W 122°55'0 0.0
2014-Oct-31 09:32N 49°11' W 122°55'0 0.0
2014-Oct-31 08:32N 49°11' W 122°55'0 0.0
2014-Oct-31 07:32N 49°11' W 122°55'0 0.0
2014-Oct-31 06:32N 49°11' W 122°55'0 0.0
2014-Oct-31 05:26N 49°11' W 122°55'0 0.0
2014-Oct-31 04:32N 49°11' W 122°55'0 0.0
2014-Oct-31 03:32N 49°11' W 122°55'0 0.0
2014-Oct-31 02:32N 49°11' W 122°55'0 0.0
2014-Oct-31 01:32N 49°11' W 122°55'0 0.0
2014-Oct-31 00:32N 49°11' W 122°55'0 0.0
2014-Oct-30 23:32N 49°11' W 122°55'0 0.0
2014-Oct-30 22:32N 49°11' W 122°55'0 0.0
2014-Oct-30 21:32N 49°11' W 122°55'0 0.0
2014-Oct-30 20:29N 49°11' W 122°55'0 0.0
2014-Oct-30 19:32N 49°11' W 122°55'0 0.0
2014-Oct-30 18:32N 49°11' W 122°55'0 0.0
2014-Oct-30 17:26N 49°11' W 122°55'0 0.1
2014-Oct-30 16:33N 49°11' W 122°55'1 0.6
2014-Oct-30 15:34N 49°11' W 122°55'8 7.8
2014-Oct-30 14:33N 49°07' W 123°05'8 8.3
2014-Oct-30 13:34N 49°06' W 123°18'4 3.9
2014-Oct-30 12:33N 49°02' W 123°17'7 6.6
2014-Oct-30 11:34N 48°58' W 123°10'6 6.4
2014-Oct-30 10:34N 48°54' W 123°02'5 4.5
2014-Oct-30 09:33N 48°52' W 122°56'1 1.0
2014-Oct-30 08:33N 48°53' W 122°55'0 0.4
2014-Oct-30 07:33N 48°53' W 122°55'1 0.6
2014-Oct-30 06:34N 48°53' W 122°54'1 1.1
2014-Oct-30 05:33N 48°52' W 122°56'7 7.2
2014-Oct-30 04:33N 48°46' W 123°02'1010.3
2014-Oct-30 03:33N 48°41' W 123°15'1111.0
2014-Oct-30 02:34N 48°30' W 123°11'10 9.5
2014-Oct-30 01:34N 48°22' W 123°19'4 2.1
2014-Oct-29 23:31N 48°25' W 123°23'0 0.0
2014-Oct-29 22:31N 48°25' W 123°23'0 0.0
2014-Oct-29 21:31N 48°25' W 123°23'0 0.0
2014-Oct-29 20:31N 48°25' W 123°23'0 0.0
2014-Oct-29 19:31N 48°25' W 123°23'0 0.0
2014-Oct-29 18:31N 48°25' W 123°23'0 0.0
2014-Oct-29 17:31N 48°25' W 123°23'0 0.0
2014-Oct-29 16:25N 48°25' W 123°23'0 0.0
2014-Oct-29 15:25N 48°25' W 123°23'0 0.0
2014-Oct-29 14:31N 48°25' W 123°23'0 0.0
2014-Oct-29 13:31N 48°25' W 123°23'0 0.0
2014-Oct-29 12:31N 48°25' W 123°23'0 0.0
2014-Oct-29 11:31N 48°25' W 123°23'0 0.0
2014-Oct-29 10:31N 48°25' W 123°23'0 0.0
2014-Oct-29 09:31N 48°25' W 123°23'0 0.0
2014-Oct-29 08:31N 48°25' W 123°23'0 0.0
2014-Oct-29 07:31N 48°25' W 123°23'0 0.0
2014-Oct-29 06:25N 48°25' W 123°23'0 0.0
2014-Oct-29 05:31N 48°25' W 123°23'0 0.0
2014-Oct-29 04:31N 48°25' W 123°23'0 0.0
2014-Oct-29 03:31N 48°25' W 123°23'0 0.0
2014-Oct-29 02:25N 48°25' W 123°23'0 0.0
2014-Oct-29 01:31N 48°25' W 123°23'0 0.0
2014-Oct-28 23:31N 48°25' W 123°23'0 0.0
2014-Oct-28 22:19N 48°25' W 123°23'0 0.0
2014-Oct-28 21:31N 48°25' W 123°23'0 0.0
2014-Oct-28 20:31N 48°25' W 123°23'0 0.0
2014-Oct-28 19:13N 48°25' W 123°23'0 0.0
2014-Oct-28 18:19N 48°25' W 123°23'0 0.0
2014-Oct-28 17:25N 48°25' W 123°23'0 0.0
2014-Oct-28 16:31N 48°25' W 123°23'0 0.0
2014-Oct-28 15:31N 48°25' W 123°23'0 0.0
2014-Oct-28 14:31N 48°25' W 123°23'0 0.0
2014-Oct-28 13:25N 48°25' W 123°23'0 0.0
2014-Oct-28 12:31N 48°25' W 123°23'0 0.0
2014-Oct-28 11:31N 48°25' W 123°23'0 0.0
2014-Oct-28 10:25N 48°25' W 123°23'0 0.0
2014-Oct-28 09:28N 48°25' W 123°23'0 0.0
2014-Oct-28 08:28N 48°25' W 123°23'0 0.0
2014-Oct-28 07:22N 48°25' W 123°23'0 0.0
2014-Oct-28 06:22N 48°25' W 123°23'0 0.0
2014-Oct-28 05:31N 48°25' W 123°23'0 0.0
2014-Oct-28 04:31N 48°25' W 123°23'0 0.0
2014-Oct-28 03:31N 48°25' W 123°23'0 0.0
2014-Oct-28 02:31N 48°25' W 123°23'0 0.0
2014-Oct-28 01:31N 48°25' W 123°23'0 0.0
2014-Oct-28 00:31N 48°25' W 123°23'0 0.0
2014-Oct-27 23:31N 48°25' W 123°23'0 0.0
2014-Oct-27 22:31N 48°25' W 123°23'0 0.0
2014-Oct-27 21:31N 48°25' W 123°23'0 0.0
2014-Oct-27 20:19N 48°25' W 123°23'0 0.0
2014-Oct-27 19:31N 48°25' W 123°23'0 0.0
2014-Oct-27 18:31N 48°25' W 123°23'0 0.0
2014-Oct-27 17:28N 48°25' W 123°23'0 0.0
2014-Oct-27 16:31N 48°25' W 123°23'0 0.0
2014-Oct-27 15:25N 48°25' W 123°23'0 0.0
2014-Oct-27 14:25N 48°25' W 123°23'0 0.0
2014-Oct-27 13:31N 48°25' W 123°23'0 0.0
2014-Oct-27 12:31N 48°25' W 123°23'0 0.0
2014-Oct-27 11:31N 48°25' W 123°23'0 0.0
2014-Oct-27 10:31N 48°25' W 123°23'0 0.0
2014-Oct-27 09:31N 48°25' W 123°23'0 0.0
2014-Oct-27 08:31N 48°25' W 123°23'0 0.0
2014-Oct-27 07:13N 48°25' W 123°23'0 0.0
2014-Oct-27 06:31N 48°25' W 123°23'0 0.0
2014-Oct-27 05:31N 48°25' W 123°23'0 0.0
2014-Oct-27 04:25N 48°25' W 123°23'0 0.0
2014-Oct-27 02:31N 48°25' W 123°23'0 0.0
2014-Oct-27 01:25N 48°25' W 123°23'0 0.0
2014-Oct-27 00:31N 48°25' W 123°23'0 0.0
2014-Oct-26 23:25N 48°25' W 123°23'0 0.0
2014-Oct-26 22:31N 48°25' W 123°23'0 0.0
2014-Oct-26 21:25N 48°25' W 123°23'0 0.0
2014-Oct-26 20:31N 48°25' W 123°23'0 0.0
2014-Oct-26 19:31N 48°25' W 123°23'0 0.0
2014-Oct-26 18:07N 48°25' W 123°23'0 0.0
2014-Oct-26 17:31N 48°25' W 123°23'0 0.0
2014-Oct-26 16:31N 48°25' W 123°23'0 0.0
2014-Oct-26 15:19N 48°25' W 123°23'0 0.0
2014-Oct-26 14:31N 48°25' W 123°23'0 0.0
2014-Oct-26 13:31N 48°25' W 123°23'0 0.0
2014-Oct-26 12:25N 48°25' W 123°23'0 0.0
2014-Oct-26 11:25N 48°25' W 123°23'0 0.0
2014-Oct-26 10:31N 48°25' W 123°23'0 0.0
2014-Oct-26 09:25N 48°25' W 123°23'0 0.0
2014-Oct-26 08:19N 48°25' W 123°23'0 0.0
2014-Oct-26 07:31N 48°25' W 123°23'0 0.0
2014-Oct-26 06:31N 48°25' W 123°23'0 0.0
2014-Oct-26 05:31N 48°25' W 123°23'0 0.0
2014-Oct-26 04:25N 48°25' W 123°23'0 0.0
2014-Oct-26 03:31N 48°25' W 123°23'0 0.0
2014-Oct-26 02:31N 48°25' W 123°23'0 0.0
2014-Oct-26 01:31N 48°25' W 123°23'0 0.0
2014-Oct-26 00:31N 48°25' W 123°23'0 0.0
2014-Oct-25 23:31N 48°25' W 123°23'0 0.0
2014-Oct-25 22:31N 48°25' W 123°23'0 0.0
2014-Oct-25 20:19N 48°25' W 123°23'0 0.0
2014-Oct-25 19:07N 48°25' W 123°23'0 0.0
2014-Oct-25 15:25N 48°25' W 123°23'0 0.0
2014-Oct-25 14:25N 48°25' W 123°23'0 0.0
2014-Oct-25 13:31N 48°25' W 123°23'0 0.0
2014-Oct-25 12:31N 48°25' W 123°23'0 0.0
2014-Oct-25 11:31N 48°25' W 123°23'0 0.0
2014-Oct-25 10:31N 48°25' W 123°23'0 0.0
2014-Oct-25 09:31N 48°25' W 123°23'0 0.0
2014-Oct-25 08:25N 48°25' W 123°23'0 0.0
2014-Oct-25 07:31N 48°25' W 123°23'0 0.0
2014-Oct-25 06:31N 48°25' W 123°23'0 0.0
2014-Oct-25 05:31N 48°25' W 123°23'0 0.0
2014-Oct-25 04:31N 48°25' W 123°23'0 0.0
2014-Oct-25 03:31N 48°25' W 123°23'0 0.0
2014-Oct-25 02:31N 48°25' W 123°23'0 0.0
2014-Oct-25 01:31N 48°25' W 123°23'0 0.0
2014-Oct-25 00:31N 48°25' W 123°23'0 0.0
2014-Oct-24 23:31N 48°25' W 123°23'0 0.0
2014-Oct-24 22:31N 48°25' W 123°23'0 0.0
2014-Oct-24 21:25N 48°25' W 123°23'0 0.0
2014-Oct-24 20:31N 48°25' W 123°23'0 0.0
2014-Oct-24 19:31N 48°25' W 123°23'0 0.0
2014-Oct-24 18:13N 48°25' W 123°23'0 0.0
2014-Oct-24 17:25N 48°25' W 123°23'0 0.0
2014-Oct-24 16:31N 48°25' W 123°23'0 0.0
2014-Oct-24 15:31N 48°25' W 123°23'0 0.0
2014-Oct-24 14:31N 48°25' W 123°23'0 0.0
2014-Oct-24 13:31N 48°25' W 123°23'0 0.0
2014-Oct-24 12:31N 48°25' W 123°23'0 0.0
2014-Oct-24 11:31N 48°25' W 123°23'0 0.0
2014-Oct-24 10:25N 48°25' W 123°23'0 0.0
2014-Oct-24 09:19N 48°25' W 123°23'0 0.0
2014-Oct-24 08:19N 48°25' W 123°23'0 0.0
2014-Oct-24 07:31N 48°25' W 123°23'0 0.0
2014-Oct-24 06:31N 48°25' W 123°23'0 0.0
2014-Oct-24 05:25N 48°25' W 123°23'0 0.0
2014-Oct-24 04:31N 48°25' W 123°23'0 0.0
2014-Oct-24 02:31N 48°25' W 123°23'0 0.0
2014-Oct-24 01:31N 48°25' W 123°23'0 0.0
2014-Oct-24 00:31N 48°25' W 123°23'0 0.0
2014-Oct-23 23:31N 48°25' W 123°23'0 0.0
2014-Oct-23 22:13N 48°25' W 123°23'0 0.0
2014-Oct-23 21:31N 48°25' W 123°23'1 0.9
2014-Oct-23 20:33N 48°25' W 123°24'8 8.1
2014-Oct-23 19:33N 48°27' W 123°13'1211.9
2014-Oct-23 18:33N 48°38' W 123°21'6 6.2
2014-Oct-23 17:33N 48°40' W 123°30'2 2.0
2014-Oct-23 16:30N 48°39' W 123°27'0 0.0
2014-Oct-23 15:18N 48°39' W 123°27'0 0.0
2014-Oct-23 09:21N 48°39' W 123°27'0 0.0
2014-Oct-23 03:18N 48°39' W 123°27'0 0.0
2014-Oct-23 01:06N 48°39' W 123°27'0 0.0
2014-Oct-23 00:33N 48°39' W 123°27'0 0.0
2014-Oct-22 23:30N 48°39' W 123°27'0 0.0
2014-Oct-22 22:12N 48°39' W 123°27'0 0.0
2014-Oct-22 21:30N 48°39' W 123°27'0 0.0
2014-Oct-22 20:33N 48°39' W 123°27'0 0.0
2014-Oct-22 19:30N 48°39' W 123°27'0 0.0
2014-Oct-22 18:27N 48°39' W 123°27'0 0.0
2014-Oct-22 17:33N 48°39' W 123°27'0 0.0
2014-Oct-22 16:30N 48°39' W 123°27'0 0.0
2014-Oct-22 15:33N 48°39' W 123°27'2 1.8
2014-Oct-22 14:32N 48°40' W 123°30'9 9.3
2014-Oct-22 13:34N 48°44' W 123°18'1212.2
2014-Oct-22 12:33N 48°48' W 123°01'6 6.4
2014-Oct-22 11:33N 48°52' W 123°08'6 6.3
2014-Oct-22 10:33N 48°56' W 123°16'6 6.3
2014-Oct-22 09:33N 48°59' W 123°24'6 6.1
2014-Oct-22 08:33N 49°04' W 123°30'6 6.3
2014-Oct-22 07:33N 49°09' W 123°36'6 6.3
2014-Oct-22 06:32N 49°13' W 123°44'6 6.4
2014-Oct-22 05:33N 49°16' W 123°53'  

Dump ship's entire track history